Погода Плисковщинана 2 недели

Минская область, Белоруссия

26 мая-08 июня
  • 26мая
    Сегодня
    +11°
    +26°
    Облачно с прояснениями
    ВремяПогодаТемператураВлажностьДавлениеВетер, м/сВероятность осадков
    00:00Ясно и безоблачно+17°C59 %750 мм3.6 м/с2 %
    03:00Ясно и безоблачно+15°C53 %750 мм3.8 м/с2 %
    06:00Ясно и безоблачно+14°C56 %750 мм3.3 м/с2 %
    09:00Ясно и безоблачно+20°C53 %751 мм2.4 м/с2 %
    12:00Ясно и безоблачно+23°C36 %751 мм3.0 м/с2 %
    15:00Облачно с прояснениями+25°C32 %750 мм2.6 м/с2 %
    18:00Ясно и безоблачно+25°C32 %750 мм2.3 м/с2 %
    21:00Ясно и безоблачно+20°C47 %750 мм2.7 м/с2 %
  • 27мая
    Понедельник
    +13°
    +27°
    Практически безоблачно
    ВремяПогодаТемператураВлажностьДавлениеВетер, м/сВероятность осадков
    00:00Практически безоблачно+14°C62 %750 мм1.9 м/с2 %
    03:00Ясно и безоблачно+14°C68 %750 мм1.6 м/с2 %
    06:00Облачно с прояснениями+14°C65 %750 мм1.1 м/с2 %
    09:00Небольшая облачность+21°C48 %750 мм2.1 м/с2 %
    12:00Облачно с прояснениями+25°C37 %750 мм3.0 м/с2 %
    15:00Практически безоблачно+26°C35 %750 мм2.5 м/с2 %
    18:00Практически безоблачно+26°C38 %749 мм2.3 м/с2 %
    21:00Ясно и безоблачно+20°C67 %748 мм2.1 м/с2 %
  • 28мая
    Вторник
    +13°
    +25°
    Облачно с прояснениями
    ВремяПогодаТемператураВлажностьДавлениеВетер, м/сВероятность осадков
    00:00Ясно и безоблачно+17°C64 %748 мм2.6 м/с2 %
    03:00Ясно и безоблачно+15°C75 %748 мм2.9 м/с2 %
    06:00Ясно и безоблачно+15°C77 %747 мм3.2 м/с2 %
    09:00Небольшая облачность+22°C58 %747 мм3.3 м/с2 %
    12:00Небольшая облачность+24°C41 %747 мм4.3 м/с2 %
    15:00Облачно с прояснениями+25°C33 %746 мм3.5 м/с15 %
    18:00Ясно и безоблачно+26°C33 %745 мм2.9 м/с18 %
    21:00Ясно и безоблачно+21°C52 %744 мм2.2 м/с5 %
  • 29мая
    Среда
    +14°
    +27°
    Практически безоблачно
    ВремяПогодаТемператураВлажностьДавлениеВетер, м/сВероятность осадков
    00:00Практически безоблачно+17°C56 %744 мм3.9 м/с2 %
    03:00Ясно и безоблачно+16°C69 %744 мм4.1 м/с2 %
    06:00Ясно и безоблачно+15°C72 %743 мм4.0 м/с2 %
    09:00Практически безоблачно+22°C51 %743 мм3.5 м/с2 %
    12:00Практически безоблачно+26°C26 %743 мм4.9 м/с3 %
    15:00Практически безоблачно+26°C26 %742 мм4.9 м/с17 %
    18:00Ясно и безоблачно+25°C29 %741 мм4.0 м/с10 %
    21:00Практически безоблачно+21°C54 %741 мм1.9 м/с2 %
  • 30мая
    Четверг
    +14°
    +26°
    Облачно с прояснениями
    ВремяПогодаТемператураВлажностьДавлениеВетер, м/сВероятность осадков
    00:00Небольшая облачность+18°C50 %741 мм2.9 м/с2 %
    03:00Облачно с прояснениями+16°C55 %740 мм3.1 м/с2 %
    06:00Облачно с прояснениями+15°C58 %739 мм3.4 м/с2 %
    09:00Облачно с прояснениями+21°C52 %740 мм3.8 м/с4 %
    12:00Облачно с прояснениями+26°C35 %740 мм4.3 м/с21 %
    15:00Облачно с прояснениями+24°C39 %739 мм4.1 м/с43 %
    18:00Ясно и безоблачно+26°C39 %739 мм5.0 м/с47 %
    21:00Ясно и безоблачно+21°C63 %739 мм2.1 м/с17 %
Мы используем cookies
Соглашаюсь